Time;durP1;ratioP1;P1;durP2;ratioP2;P2;SDS_P1;SDS_P2;PMS_P1;PMS_P2;Temp;Humidity;BMP_temperature;BMP_pressure;BME280_temperature;BME280_humidity;BME280_pressure;Samples;Min_cycle;Max_cycle;Signal;HPM_P1;HPM_P2
2021/04/06 00:02:30;;;;;;;3.97;2.60;;;2.50;73.40;;;1.31;61.97;94081.81;5017177;28;20227;-84
2021/04/06 00:05:02;;;;;;;3.42;2.28;;;2.50;73.00;;;1.27;62.04;94081.31;5031810;28;20239;-85
2021/04/06 00:07:30;;;;;;;4.05;3.00;;;2.50;73.20;;;1.30;61.65;94094.88;5033618;28;20263;-85
2021/04/06 00:10:08;;;;;;;4.00;2.20;;;2.40;74.00;;;1.27;61.27;94094.22;5017252;28;20196;-85
2021/04/06 00:12:37;;;;;;;3.10;2.13;;;2.40;73.10;;;1.28;61.36;94070.00;5019949;28;20224;-85
2021/04/06 00:15:08;;;;;;;2.50;2.30;;;2.40;73.00;;;1.27;60.82;94083.09;5056726;28;20196;-84
2021/04/06 00:17:36;;;;;;;3.08;2.63;;;2.30;72.80;;;1.24;61.68;94086.75;5056755;28;20230;-85
2021/04/06 00:20:06;;;;;;;5.07;2.40;;;2.40;73.20;;;1.23;61.55;94100.66;5056684;28;20223;-85
2021/04/06 00:22:35;;;;;;;2.35;2.15;;;2.30;73.20;;;1.25;60.79;94098.72;5057076;28;20247;-85
2021/04/06 00:25:08;;;;;;;2.40;2.20;;;2.30;72.90;;;1.23;60.66;94095.50;5073233;28;20199;-85
2021/04/06 00:27:41;;;;;;;3.10;2.10;;;2.30;72.90;;;1.22;60.81;94108.56;5056737;28;20214;-85
2021/04/06 00:30:14;;;;;;;2.90;2.25;;;2.30;72.80;;;1.22;60.80;94090.47;5056907;28;20517;-85
2021/04/06 00:32:43;;;;;;;3.45;2.08;;;2.30;72.90;;;1.21;60.66;94088.84;5072960;28;20222;-85
2021/04/06 00:35:11;;;;;;;3.55;2.30;;;2.30;72.70;;;1.19;60.62;94094.19;5056576;28;20244;-85
2021/04/06 00:37:47;;;;;;;3.03;2.10;;;2.30;72.70;;;1.16;60.55;94094.50;5056008;28;20219;-85
2021/04/06 00:40:16;;;;;;;3.35;2.22;;;2.30;72.90;;;1.11;61.21;94092.38;5056660;28;20214;-85
2021/04/06 00:42:43;;;;;;;2.78;1.98;;;2.30;72.70;;;1.08;60.34;94097.03;5037141;28;20713;-85
2021/04/06 00:45:19;;;;;;;2.97;1.67;;;2.20;72.50;;;1.04;60.12;94098.28;5052898;28;20226;-85
2021/04/06 00:47:46;;;;;;;2.10;1.75;;;2.20;72.50;;;1.01;60.19;94111.53;5052948;28;20238;-85
2021/04/06 00:50:15;;;;;;;4.07;2.40;;;2.20;72.20;;;0.93;60.48;94115.66;5053035;28;20250;-85
2021/04/06 00:52:47;;;;;;;3.58;2.10;;;2.10;72.40;;;0.90;60.79;94115.97;5053606;28;20221;-85
2021/04/06 00:55:19;;;;;;;2.63;1.90;;;2.10;72.50;;;0.85;60.36;94118.19;5052698;28;20230;-85
2021/04/06 00:57:47;;;;;;;2.80;1.80;;;2.10;72.50;;;0.80;60.09;94110.91;5052908;28;20277;-84
2021/04/06 01:00:26;;;;;;;3.83;2.20;;;2.00;72.10;;;0.74;60.11;94113.28;5036073;28;20210;-84
2021/04/06 01:03:04;;;;;;;3.28;2.00;;;2.00;72.30;;;0.69;60.00;94113.75;5050481;28;20228;-85
2021/04/06 01:05:53;;;;;;;3.05;1.77;;;1.90;72.10;;;0.64;59.87;94105.66;5036429;28;20290;-85
2021/04/06 01:08:25;;;;;;;1.70;1.60;;;1.90;71.90;;;0.54;60.11;94110.91;5059417;28;20223;-85
2021/04/06 01:10:52;;;;;;;3.88;2.13;;;1.80;71.90;;;0.51;59.66;94103.44;5026101;28;20197;-84
2021/04/06 01:13:20;;;;;;;2.80;1.90;;;1.80;71.80;;;0.46;59.41;94101.34;5032470;28;20236;-85
2021/04/06 01:15:48;;;;;;;3.17;2.10;;;1.70;71.70;;;0.40;60.11;94099.31;5032942;28;20197;-85
2021/04/06 01:18:16;;;;;;;2.53;1.73;;;1.70;71.80;;;0.36;59.88;94095.44;5032507;28;20244;-84
2021/04/06 01:20:44;;;;;;;2.50;1.90;;;1.70;71.90;;;0.30;59.28;94091.69;5035582;28;20258;-85
2021/04/06 01:23:17;;;;;;;2.58;1.90;;;1.60;71.70;;;0.26;59.73;94092.94;5035880;28;20246;-84
2021/04/06 01:25:49;;;;;;;2.92;2.00;;;1.50;71.80;;;0.22;59.84;94091.63;5036193;28;20218;-85
2021/04/06 01:28:16;;;;;;;4.07;1.90;;;1.50;71.90;;;0.17;60.45;94093.03;5068775;28;20208;-85
2021/04/06 01:30:45;;;;;;;2.75;2.05;;;1.50;71.90;;;0.15;60.56;94090.59;5066256;28;20208;-84
2021/04/06 01:33:24;;;;;;;3.22;1.80;;;1.40;72.10;;;0.11;59.74;94090.09;5015984;28;20227;-85
2021/04/06 01:35:59;;;;;;;2.88;1.95;;;1.40;71.90;;;0.07;60.03;94085.38;5000311;28;20203;-85
2021/04/06 01:38:28;;;;;;;2.83;1.70;;;1.30;71.90;;;0.03;59.66;94079.69;5015310;28;20226;-85
2021/04/06 01:40:58;;;;;;;1.92;1.45;;;1.30;71.80;;;0.01;59.42;94076.44;5051129;28;20196;-84
2021/04/06 01:43:29;;;;;;;2.95;1.90;;;1.30;71.70;;;-0.01;59.16;94076.59;5043682;28;20665;-85
2021/04/06 01:46:24;;;;;;;2.20;1.80;;;1.30;71.60;;;-0.05;59.29;94080.44;5071918;28;20286;-85
2021/04/06 01:48:52;;;;;;;3.03;1.63;;;1.20;71.80;;;-0.10;59.68;94082.63;5057854;28;20206;-85
2021/04/06 01:51:21;;;;;;;2.97;1.70;;;1.20;71.60;;;-0.12;59.54;94079.41;5037061;28;20251;-85
2021/04/06 01:53:49;;;;;;;1.77;1.63;;;1.10;71.70;;;-0.14;59.41;94073.59;5015704;28;20623;-84
2021/04/06 01:56:26;;;;;;;2.60;2.03;;;1.10;71.60;;;-0.17;60.31;94071.31;5032370;28;20239;-85
2021/04/06 01:58:56;;;;;;;3.25;1.98;;;1.10;72.10;;;-0.20;59.62;94084.47;5020141;28;20212;-85
2021/04/06 02:01:24;;;;;;;3.33;2.13;;;1.10;71.80;;;-0.25;60.15;94072.03;5051352;28;20707;-84
2021/04/06 02:06:26;;;;;;;3.38;1.90;;;1.00;71.90;;;-0.24;59.53;94080.59;5051770;28;20694;-85
2021/04/06 02:08:55;;;;;;;2.10;1.75;;;1.00;71.90;;;-0.31;59.31;94067.47;5034437;28;20230;-84
2021/04/06 02:11:32;;;;;;;3.17;1.90;;;0.90;71.80;;;-0.30;59.63;94083.75;5047977;28;20744;-84
2021/04/06 02:14:11;;;;;;;4.03;2.05;;;1.00;72.80;;;-0.33;59.25;94084.81;5022650;28;20208;-85
2021/04/06 02:16:57;;;;;;;2.38;1.60;;;0.90;72.00;;;-0.35;58.91;94077.25;5031525;28;20228;-84
2021/04/06 02:19:29;;;;;;;3.05;1.73;;;0.90;71.80;;;-0.40;59.29;94082.03;5047574;28;20223;-85
2021/04/06 02:22:03;;;;;;;2.92;1.60;;;0.90;71.80;;;-0.42;59.08;94080.56;5051945;28;20330;-85
2021/04/06 02:24:52;;;;;;;2.15;1.90;;;0.90;71.80;;;-0.46;59.41;94084.34;5051725;28;20200;-84
2021/04/06 02:27:26;;;;;;;3.92;1.80;;;0.80;71.80;;;-0.51;59.35;94071.94;5015826;28;20224;-84
2021/04/06 02:30:09;;;;;;;4.32;1.98;;;0.80;71.90;;;-0.53;59.94;94081.56;5015380;28;20201;-85
2021/04/06 02:32:36;;;;;;;3.00;1.70;;;0.80;71.90;;;-0.54;59.56;94078.19;5048359;28;20212;-85
2021/04/06 02:35:12;;;;;;;3.50;1.80;;;0.70;71.70;;;-0.55;59.75;94079.16;5042006;28;20209;-84
2021/04/06 02:37:45;;;;;;;2.40;1.67;;;0.70;71.90;;;-0.58;60.17;94083.78;5015440;28;20299;-85
2021/04/06 02:40:20;;;;;;;3.38;1.73;;;0.70;72.10;;;-0.59;60.38;94077.78;5048572;28;20233;-85
2021/04/06 02:42:55;;;;;;;3.17;1.80;;;0.70;72.20;;;-0.62;59.49;94080.66;5051655;28;20220;-84
2021/04/06 02:45:28;;;;;;;4.80;1.92;;;0.70;72.10;;;-0.61;60.15;94079.72;5055293;28;20234;-85
2021/04/06 02:48:08;;;;;;;2.38;1.60;;;0.60;72.10;;;-0.63;60.84;94070.50;5031856;28;20208;-85
2021/04/06 02:50:37;;;;;;;2.85;1.40;;;0.60;72.50;;;-0.65;60.64;94071.47;5038295;28;20645;-84
2021/04/06 02:53:10;;;;;;;2.60;1.52;;;0.60;72.30;;;-0.68;60.37;94063.22;5069549;28;20247;-85
2021/04/06 02:55:38;;;;;;;2.83;1.67;;;0.60;72.30;;;-0.64;60.25;94069.69;5038884;28;20200;-85
2021/04/06 02:58:15;;;;;;;2.20;1.70;;;0.60;72.30;;;-0.66;60.12;94072.41;5038365;28;20397;-85
2021/04/06 03:00:43;;;;;;;2.08;1.58;;;0.60;72.30;;;-0.66;59.86;94071.59;5037903;28;20191;-84
2021/04/06 03:03:25;;;;;;;2.67;1.70;;;0.60;72.10;;;-0.74;60.00;94064.59;5038119;28;20592;-85
2021/04/06 03:06:08;;;;;;;4.32;1.85;;;0.60;72.30;;;-0.67;59.96;94072.56;5071635;28;20204;-85
2021/04/06 03:08:37;;;;;;;2.50;1.80;;;0.60;72.30;;;-0.70;60.70;94072.84;5023701;28;20204;-84
2021/04/06 03:11:07;;;;;;;4.32;2.45;;;0.60;72.50;;;-0.69;60.89;94074.47;5033195;28;20282;-84
2021/04/06 03:13:43;;;;;;;2.85;1.40;;;0.50;72.50;;;-0.68;59.95;94070.94;5046003;28;20684;-84
2021/04/06 03:16:11;;;;;;;2.53;1.67;;;0.50;72.30;;;-0.69;60.18;94069.31;5051913;28;20234;-85
2021/04/06 03:18:41;;;;;;;2.08;1.60;;;0.50;72.20;;;-0.71;59.48;94069.47;5043923;28;20223;-85
2021/04/06 03:21:11;;;;;;;3.03;1.70;;;0.50;72.20;;;-0.75;59.48;94073.28;5055463;28;20197;-85
2021/04/06 03:23:39;;;;;;;4.30;1.60;;;0.50;72.10;;;-0.75;59.38;94070.69;5024678;28;20205;-85
2021/04/06 03:26:07;;;;;;;4.13;1.60;;;0.50;71.90;;;-0.79;59.31;94066.78;5034455;28;20259;-84
2021/04/06 03:28:37;;;;;;;2.00;1.60;;;0.50;71.90;;;-0.83;60.30;94065.44;5042358;28;20203;-84
2021/04/06 03:31:19;;;;;;;2.13;1.60;;;0.50;72.20;;;-0.87;59.84;94077.00;5041213;28;20201;-85
2021/04/06 03:33:49;;;;;;;3.35;1.50;;;0.40;72.10;;;-0.88;59.76;94080.50;5019821;28;20192;-84
2021/04/06 03:36:31;;;;;;;2.92;1.65;;;0.40;71.90;;;-0.90;59.52;94077.28;5041837;28;20223;-84
2021/04/06 03:39:07;;;;;;;2.88;1.60;;;0.40;71.90;;;-0.93;59.24;94078.34;5025593;28;20209;-83
2021/04/06 03:41:36;;;;;;;2.88;1.60;;;0.40;71.90;;;-0.96;59.05;94078.66;5041598;28;20204;-84
2021/04/06 03:44:11;;;;;;;4.57;1.92;;;0.30;71.70;;;-0.99;59.33;94079.75;5016663;28;20212;-85
2021/04/06 03:46:41;;;;;;;3.83;1.50;;;0.30;71.80;;;-1.00;59.04;94078.13;5033254;28;20216;-84
2021/04/06 03:49:22;;;;;;;2.17;1.52;;;0.30;71.60;;;-1.07;58.77;94069.34;5017825;28;20633;-85
2021/04/06 03:51:51;;;;;;;1.42;1.30;;;0.30;71.60;;;-1.07;58.53;94077.06;5017703;28;20216;-85
2021/04/06 03:54:47;;;;;;;2.45;1.60;;;0.20;71.30;;;-1.14;58.84;94076.00;5027867;28;20208;-85
2021/04/06 03:57:37;;;;;;;3.20;1.58;;;0.20;71.50;;;-1.19;59.13;94067.91;5037345;28;20227;-85
2021/04/06 04:00:09;;;;;;;2.10;1.85;;;0.20;71.60;;;-1.23;58.92;94069.94;5037766;28;20206;-85
2021/04/06 04:02:36;;;;;;;3.00;1.67;;;0.10;71.40;;;-1.24;58.49;94068.31;5021228;28;20262;-86
2021/04/06 04:05:05;;;;;;;1.92;1.40;;;0.10;71.30;;;-1.32;58.19;94068.22;5053992;28;20223;-85
2021/04/06 04:07:38;;;;;;;2.15;1.45;;;0.10;71.30;;;-1.33;58.38;94069.16;5053855;28;20624;-86
2021/04/06 04:10:08;;;;;;;2.60;1.60;;;0.00;71.20;;;-1.38;58.00;94063.63;5054206;28;20212;-85
2021/04/06 04:12:35;;;;;;;3.08;1.40;;;0.00;71.00;;;-1.42;58.02;94059.72;5037224;28;20220;-87
2021/04/06 04:15:03;;;;;;;11.82;6.45;;;-0.10;70.90;;;-1.47;57.69;94067.84;5037249;28;20200;-85
2021/04/06 04:17:29;;;;;;;19.38;13.80;;;-0.10;70.90;;;-1.53;58.07;94068.41;5053551;28;20208;-86
2021/04/06 04:19:56;;;;;;;10.52;8.07;;;-0.10;70.90;;;-1.54;57.76;94074.50;5053654;28;20197;-86
2021/04/06 04:22:23;;;;;;;10.50;6.35;;;-0.20;70.80;;;-1.59;57.91;94074.91;5037117;28;20262;-86
2021/04/06 04:24:50;;;;;;;7.45;5.50;;;-0.20;70.80;;;-1.63;57.73;94076.13;5070183;28;20199;-87
2021/04/06 04:27:17;;;;;;;6.50;3.90;;;-0.30;70.70;;;-1.66;57.48;94068.69;5053329;28;20716;-86
2021/04/06 04:29:43;;;;;;;4.50;3.40;;;-0.30;70.70;;;-1.71;57.53;94074.28;5037216;28;20224;-87
2021/04/06 04:32:13;;;;;;;3.97;2.80;;;-0.30;70.70;;;-1.73;57.59;94073.59;5053193;28;20220;-87
2021/04/06 04:34:41;;;;;;;2.35;2.15;;;-0.40;70.70;;;-1.78;57.35;94076.56;5053872;28;20210;-86
2021/04/06 04:37:08;;;;;;;2.38;1.90;;;-0.40;70.60;;;-1.81;57.35;94073.44;5052565;28;20643;-87
2021/04/06 04:39:35;;;;;;;2.75;2.08;;;-0.40;70.70;;;-1.87;57.36;94074.81;5036441;28;20210;-86
2021/04/06 04:42:01;;;;;;;4.22;1.80;;;-0.50;70.60;;;-1.88;57.34;94080.09;5036489;28;20208;-86
2021/04/06 04:44:29;;;;;;;4.22;1.70;;;-0.40;70.70;;;-1.92;57.28;94084.69;5033375;28;20213;-86
2021/04/06 04:46:56;;;;;;;2.42;1.50;;;-0.50;70.50;;;-1.98;57.12;94078.34;5032718;28;20256;-87
2021/04/06 04:49:23;;;;;;;4.72;1.75;;;-0.60;70.50;;;-1.99;56.98;94075.88;5033218;28;20606;-87
2021/04/06 04:51:50;;;;;;;5.28;2.00;;;-0.60;70.50;;;-2.04;57.11;94063.44;5033052;28;20217;-86
2021/04/06 04:54:17;;;;;;;1.75;1.60;;;-0.60;70.50;;;-2.00;57.25;94079.41;5033579;28;20227;-86
2021/04/06 04:56:43;;;;;;;2.95;1.70;;;-0.60;70.60;;;-2.03;57.59;94066.84;5016289;28;20710;-86
2021/04/06 04:59:10;;;;;;;2.40;1.50;;;-0.70;70.70;;;-1.97;57.97;94074.81;5032897;28;20193;-87
2021/04/06 05:01:37;;;;;;;4.90;1.90;;;-0.70;70.90;;;-1.92;58.02;94066.69;5016569;28;20205;-87
2021/04/06 05:04:04;;;;;;;5.55;1.92;;;-0.70;71.00;;;-1.87;58.82;94076.56;5016714;28;20643;-87
2021/04/06 05:06:31;;;;;;;3.40;1.85;;;-0.60;71.50;;;-1.88;58.66;94050.06;5033039;28;20259;-87
2021/04/06 05:09:04;;;;;;;3.20;1.90;;;-0.60;71.50;;;-1.77;59.15;94073.03;5017000;28;20240;-86
2021/04/06 05:11:31;;;;;;;3.97;1.83;;;-0.60;71.70;;;-1.69;59.38;94072.34;5048658;28;20228;-86
2021/04/06 05:13:58;;;;;;;2.28;1.90;;;-0.50;71.80;;;-1.64;59.28;94070.16;5029234;28;20196;-87
2021/04/06 05:16:25;;;;;;;2.58;1.90;;;-0.50;71.90;;;-1.60;59.16;94070.72;5051517;28;20220;-86
2021/04/06 05:18:52;;;;;;;2.95;1.90;;;-0.40;71.90;;;-1.52;59.02;94075.97;5036598;28;20712;-86
2021/04/06 05:21:19;;;;;;;1.85;1.75;;;-0.40;71.90;;;-1.46;58.74;94080.56;5036528;28;20208;-85
2021/04/06 05:23:46;;;;;;;4.03;2.15;;;-0.40;71.90;;;-1.38;58.47;94076.50;5018125;28;20304;-86
2021/04/06 05:26:13;;;;;;;6.35;2.05;;;-0.30;71.90;;;-1.33;58.22;94080.28;5049011;28;20225;-86
2021/04/06 05:28:40;;;;;;;2.55;2.00;;;-0.30;71.80;;;-1.27;58.28;94086.59;5032763;28;20216;-87
2021/04/06 05:31:07;;;;;;;2.70;1.60;;;-0.20;71.80;;;-1.23;58.43;94087.97;4999108;28;20690;-86
2021/04/06 05:33:33;;;;;;;3.72;1.77;;;-0.20;71.90;;;-1.16;58.43;94088.19;4999528;28;20209;-87
2021/04/06 05:36:01;;;;;;;3.28;2.17;;;-0.10;72.00;;;-1.10;58.59;94089.41;5032347;28;20275;-86
2021/04/06 05:38:28;;;;;;;4.05;2.30;;;0.00;72.10;;;-1.05;58.71;94095.78;5016331;28;20204;-87
2021/04/06 05:40:55;;;;;;;2.35;2.00;;;0.00;72.10;;;-1.00;58.77;94092.75;5016427;28;20211;-86
2021/04/06 05:43:23;;;;;;;3.08;2.22;;;0.00;72.10;;;-0.93;59.10;94086.09;5023016;28;20252;-87
2021/04/06 05:45:53;;;;;;;2.42;2.22;;;0.10;72.20;;;-0.88;59.57;94085.66;5031999;28;20209;-85
2021/04/06 05:48:23;;;;;;;2.20;2.00;;;0.20;72.40;;;-0.85;59.24;94081.03;5015932;28;20213;-87
2021/04/06 05:50:53;;;;;;;2.00;1.77;;;0.20;72.30;;;-0.75;58.85;94086.16;5032318;28;20232;-87
2021/04/06 05:53:21;;;;;;;2.50;2.00;;;0.30;72.40;;;-0.74;58.49;94074.91;5055014;28;20216;-85
2021/04/06 05:55:51;;;;;;;3.80;2.13;;;0.30;72.20;;;-0.63;58.62;94089.34;5034700;28;20208;-84
2021/04/06 05:58:18;;;;;;;2.95;1.75;;;0.40;72.20;;;-0.57;59.24;94093.13;5034401;28;20219;-85
2021/04/06 06:00:45;;;;;;;4.38;2.30;;;0.40;72.30;;;-0.58;59.98;94091.50;5051608;28;20825;-84
2021/04/06 06:03:12;;;;;;;4.32;2.60;;;0.50;72.60;;;-0.50;59.68;94091.56;5051658;28;20228;-84
2021/04/06 06:05:42;;;;;;;4.30;2.20;;;0.50;72.60;;;-0.44;59.53;94085.88;5035435;28;20208;-85
2021/04/06 06:08:14;;;;;;;3.45;2.45;;;0.60;72.60;;;-0.38;59.69;94084.47;5048998;28;20212;-84
2021/04/06 06:10:41;;;;;;;4.63;2.80;;;0.70;72.70;;;-0.37;60.16;94079.16;5032383;28;20212;-84
2021/04/06 06:13:24;;;;;;;4.57;2.63;;;0.70;72.90;;;-0.28;59.75;94077.50;5016621;28;20228;-84
2021/04/06 06:16:21;;;;;;;3.00;2.45;;;0.70;72.80;;;-0.24;60.04;94078.81;5014088;28;20204;-84
2021/04/06 06:19:06;;;;;;;3.22;2.40;;;0.80;73.00;;;-0.22;60.83;94074.31;5037241;28;20192;-84
2021/04/06 06:21:44;;;;;;;3.53;2.33;;;0.90;73.20;;;-0.12;60.30;94065.69;5045487;28;20232;-85
2021/04/06 06:24:32;;;;;;;3.55;2.60;;;0.90;73.20;;;-0.06;60.97;94072.84;5047841;28;20874;-84
2021/04/06 06:26:59;;;;;;;3.53;2.70;;;1.00;73.30;;;-0.03;61.16;94064.81;5031367;28;20212;-85
2021/04/06 06:29:41;;;;;;;5.50;2.90;;;1.00;73.30;;;0.03;61.13;94068.59;5048743;28;20243;-84
2021/04/06 06:32:28;;;;;;;4.20;2.88;;;1.10;73.50;;;0.09;61.15;94070.56;5035944;28;20207;-85
2021/04/06 06:34:55;;;;;;;4.38;3.03;;;1.20;73.60;;;0.13;61.74;94067.53;5035325;28;20188;-86
2021/04/06 06:37:28;;;;;;;4.13;2.75;;;1.20;73.80;;;0.21;61.86;94073.72;5060424;28;20207;-84
2021/04/06 06:39:58;;;;;;;3.63;2.95;;;1.30;73.90;;;0.26;61.29;94063.78;5013000;28;20192;-83
2021/04/06 06:42:45;;;;;;;5.97;2.50;;;1.30;73.80;;;0.28;61.51;94062.66;5010327;28;20247;-84
2021/04/06 06:45:25;;;;;;;3.72;2.90;;;1.30;73.90;;;0.38;61.29;94069.47;5046784;28;20204;-84
2021/04/06 06:47:57;;;;;;;6.50;2.95;;;1.40;73.80;;;0.48;60.92;94060.69;5027743;28;20761;-84
2021/04/06 06:50:25;;;;;;;5.70;3.03;;;1.50;73.80;;;0.55;61.15;94062.66;5041034;28;20240;-84
2021/04/06 06:52:54;;;;;;;3.35;2.92;;;1.50;73.90;;;0.65;60.69;94060.81;5028034;28;20239;-82
2021/04/06 06:55:25;;;;;;;3.78;2.70;;;1.60;73.80;;;0.70;60.71;94056.00;5020402;28;20254;-82
2021/04/06 06:58:06;;;;;;;5.50;2.97;;;1.60;73.60;;;0.77;60.46;94056.22;5030892;28;20298;-81
2021/04/06 07:00:34;;;;;;;4.65;3.22;;;1.70;73.70;;;0.83;60.81;94053.03;5045013;28;20207;-84
2021/04/06 07:03:01;;;;;;;7.32;3.63;;;1.80;73.80;;;0.82;61.22;94053.97;5034962;28;20208;-83
2021/04/06 07:05:30;;;;;;;4.35;2.88;;;1.80;73.90;;;0.94;60.18;94051.91;5036666;28;20196;-82
2021/04/06 07:08:04;;;;;;;3.88;2.92;;;1.90;73.50;;;0.97;60.42;94050.84;5039553;28;20226;-82
2021/04/06 07:10:40;;;;;;;3.42;3.13;;;1.90;73.50;;;1.02;61.01;94049.38;5054385;28;20219;-84
2021/04/06 07:13:19;;;;;;;6.65;3.53;;;2.00;73.80;;;1.06;60.37;94047.31;5054490;28;20648;-84
2021/04/06 07:15:48;;;;;;;4.32;3.28;;;2.00;73.30;;;1.05;60.98;94053.44;5046815;28;20276;-82
2021/04/06 07:18:24;;;;;;;4.43;3.17;;;2.10;73.60;;;1.08;60.94;94051.34;5033566;28;20694;-82
2021/04/06 07:21:03;;;;;;;6.22;3.30;;;2.10;73.70;;;1.13;60.57;94055.25;5018359;28;20199;-82
2021/04/06 07:23:35;;;;;;;4.80;3.10;;;2.10;73.30;;;1.20;60.48;94061.44;5037212;28;20274;-82
2021/04/06 07:26:09;;;;;;;5.97;3.05;;;2.20;73.50;;;1.28;60.64;94056.25;5019757;28;20204;-82
2021/04/06 07:28:39;;;;;;;3.33;2.80;;;2.20;73.80;;;1.38;60.83;94049.22;5025919;28;20730;-81
2021/04/06 07:31:06;;;;;;;3.58;3.20;;;2.30;74.00;;;1.50;60.80;94051.50;5051631;28;20650;-82
2021/04/06 07:33:35;;;;;;;4.07;2.85;;;2.30;74.00;;;1.62;60.89;94067.53;5053749;28;20196;-83
2021/04/06 07:36:18;;;;;;;4.95;3.15;;;2.40;74.20;;;1.70;61.23;94047.69;5052991;28;20195;-84
2021/04/06 07:38:49;;;;;;;5.75;2.95;;;2.50;74.60;;;1.87;61.13;94048.50;5037419;28;20597;-83
2021/04/06 07:41:20;;;;;;;4.80;3.33;;;2.60;74.60;;;2.07;61.36;94045.63;5053335;28;20188;-84
2021/04/06 07:43:49;;;;;;;5.90;3.40;;;2.70;74.70;;;2.21;61.65;94051.91;5037332;28;20509;-84
2021/04/06 07:46:49;;;;;;;4.85;3.17;;;2.80;75.00;;;2.32;60.85;94046.44;5032086;28;20211;-85
2021/04/06 07:49:22;;;;;;;6.70;3.40;;;3.00;74.30;;;2.48;60.92;94049.97;4984918;28;20228;-85
2021/04/06 07:51:59;;;;;;;4.13;3.55;;;3.10;74.70;;;2.64;60.47;94041.41;5040112;28;20689;-85
2021/04/06 07:54:48;;;;;;;8.75;3.65;;;3.20;74.40;;;2.79;60.50;94034.56;5040140;28;20192;-86
2021/04/06 07:57:15;;;;;;;5.38;3.90;;;3.40;74.60;;;2.90;60.85;94033.41;5053742;28;20350;-85
2021/04/06 07:59:49;;;;;;;5.63;4.10;;;3.50;74.70;;;2.90;60.11;94046.34;5053713;28;20199;-85
2021/04/06 08:02:21;;;;;;;6.38;4.00;;;3.60;74.50;;;2.81;60.27;94039.59;5054544;28;20216;-85
2021/04/06 08:04:48;;;;;;;5.25;3.85;;;3.70;74.30;;;2.86;59.19;94035.50;5068960;28;20195;-86
2021/04/06 08:07:33;;;;;;;5.30;4.53;;;3.70;73.50;;;2.84;59.33;94023.69;5053667;28;20249;-85
2021/04/06 08:10:11;;;;;;;6.65;4.82;;;3.70;73.40;;;2.88;59.50;94037.91;5042511;28;20476;-86
2021/04/06 08:12:38;;;;;;;5.32;4.28;;;3.80;73.80;;;2.88;59.38;94018.03;5054027;28;20215;-88
2021/04/06 08:15:19;;;;;;;10.77;3.80;;;3.80;73.50;;;2.96;59.27;94029.34;5053844;28;20200;-86
2021/04/06 08:17:51;;;;;;;7.10;4.10;;;3.70;73.30;;;3.01;57.53;94027.06;5052762;28;20216;-87
2021/04/06 08:20:22;;;;;;;5.13;3.50;;;3.80;72.30;;;3.05;58.30;94017.97;5068469;28;20188;-87
2021/04/06 08:23:00;;;;;;;5.10;3.47;;;3.90;72.80;;;3.08;58.84;94017.63;5053344;28;20254;-88
2021/04/06 08:25:30;;;;;;;4.65;3.67;;;3.90;73.20;;;3.09;58.61;94011.47;5049328;28;20297;-87
2021/04/06 08:28:00;;;;;;;7.68;3.80;;;4.00;73.00;;;3.10;58.66;94013.09;5035087;28;20259;-86
2021/04/06 08:30:32;;;;;;;4.05;3.50;;;3.90;73.10;;;3.18;58.55;94009.66;5031334;28;20212;-86
2021/04/06 08:33:07;;;;;;;4.47;3.15;;;4.00;73.00;;;3.27;58.67;94016.44;5015279;28;20217;-86
2021/04/06 08:35:47;;;;;;;9.15;3.92;;;4.00;73.10;;;3.34;59.03;94012.19;5032228;28;20641;-83
2021/04/06 08:38:23;;;;;;;6.88;3.67;;;4.10;73.10;;;3.41;58.99;94006.34;5030556;28;20528;-86
2021/04/06 08:41:13;;;;;;;5.25;3.70;;;4.10;73.30;;;3.44;58.60;94009.41;5030012;28;20224;-85
2021/04/06 08:43:51;;;;;;;4.85;3.63;;;4.20;73.10;;;3.43;58.99;94010.38;4998058;28;20197;-84
2021/04/06 08:46:40;;;;;;;5.47;4.07;;;4.30;73.20;;;3.42;58.60;94008.75;5037415;28;20200;-85
2021/04/06 08:49:22;;;;;;;5.55;3.70;;;4.30;72.90;;;3.44;58.85;94019.75;5067665;28;20632;-84
2021/04/06 08:51:53;;;;;;;3.88;3.30;;;4.30;73.10;;;3.44;58.82;94014.56;5024548;28;20255;-86
2021/04/06 08:54:32;;;;;;;4.18;3.40;;;4.30;73.20;;;3.47;59.02;94001.25;5029933;28;20208;-84
2021/04/06 08:57:07;;;;;;;6.30;3.30;;;4.30;72.90;;;3.51;59.15;93997.34;5030418;28;20218;-84
2021/04/06 08:59:42;;;;;;;5.90;3.85;;;4.40;73.40;;;3.55;58.96;93992.63;5035793;28;20208;-84
2021/04/06 09:02:12;;;;;;;7.88;3.63;;;4.40;73.30;;;3.66;59.06;93997.44;5024438;28;20274;-83
2021/04/06 09:04:49;;;;;;;7.20;3.65;;;4.40;73.50;;;3.71;58.57;93996.09;5035366;28;20223;-84
2021/04/06 09:07:35;;;;;;;3.97;3.05;;;4.40;73.40;;;3.74;58.64;93998.38;5038642;28;20731;-85
2021/04/06 09:10:09;;;;;;;4.53;3.70;;;4.50;73.30;;;3.80;58.92;93998.47;5026594;28;20273;-84
2021/04/06 09:12:39;;;;;;;7.05;3.25;;;4.60;73.40;;;3.78;58.96;94002.22;5030086;28;20232;-84
2021/04/06 09:15:11;;;;;;;5.10;3.65;;;4.60;73.20;;;3.69;59.11;94012.63;5039224;28;20239;-84
2021/04/06 09:17:40;;;;;;;5.25;3.70;;;4.60;73.30;;;3.62;59.51;94019.47;5034541;28;20772;-84
2021/04/06 09:20:11;;;;;;;6.65;3.92;;;4.50;73.40;;;3.53;59.69;94028.31;5030954;28;20204;-84
2021/04/06 09:22:40;;;;;;;9.45;3.90;;;4.50;73.40;;;3.41;60.59;94025.28;5015067;28;20212;-83
2021/04/06 09:25:23;;;;;;;7.65;3.85;;;4.50;73.60;;;3.27;60.42;94033.75;5043195;28;20188;-82
2021/04/06 09:28:03;;;;;;;6.82;3.63;;;4.40;73.60;;;3.20;60.28;94021.47;5034025;28;20289;-84
2021/04/06 09:30:34;;;;;;;7.20;3.20;;;4.30;73.50;;;3.19;60.49;94021.66;5051102;28;20219;-82
2021/04/06 09:33:15;;;;;;;7.40;3.28;;;4.20;73.50;;;3.16;60.48;94019.38;5035895;28;20207;-82
2021/04/06 09:35:48;;;;;;;4.40;3.13;;;4.20;73.60;;;3.14;60.48;94011.78;5046964;28;20199;-81
2021/04/06 09:38:24;;;;;;;4.03;3.42;;;4.10;73.70;;;3.20;59.96;94015.50;5050287;28;20644;-80
2021/04/06 09:40:52;;;;;;;4.90;2.88;;;4.10;73.80;;;3.24;60.51;94010.78;5067732;28;20656;-82
2021/04/06 09:43:20;;;;;;;5.70;3.13;;;4.10;73.90;;;3.27;60.11;94019.03;5055079;28;20213;-82
2021/04/06 09:45:49;;;;;;;4.93;3.13;;;4.10;73.90;;;3.32;60.06;94005.53;5051257;28;20194;-82
2021/04/06 09:48:18;;;;;;;5.25;3.65;;;4.10;74.10;;;3.40;60.53;94017.69;5049489;28;20234;-83
2021/04/06 09:51:04;;;;;;;3.97;3.50;;;4.10;74.50;;;3.50;60.28;94016.50;5066958;28;20228;-81
2021/04/06 09:53:35;;;;;;;4.75;3.42;;;4.20;74.60;;;3.60;60.79;93999.88;5050643;28;20207;-83
2021/04/06 09:56:04;;;;;;;5.10;3.22;;;4.30;75.00;;;3.69;60.54;93997.06;5050519;28;20203;-81
2021/04/06 09:58:34;;;;;;;7.65;3.47;;;4.30;75.00;;;3.78;60.51;93995.22;5051895;28;20200;-83
2021/04/06 10:01:03;;;;;;;5.15;3.33;;;4.40;75.10;;;3.84;60.75;93983.38;5055478;28;20223;-82
2021/04/06 10:03:46;;;;;;;4.30;3.47;;;4.40;75.00;;;3.99;61.58;94011.94;5068204;28;20246;-83
2021/04/06 10:06:13;;;;;;;5.15;3.58;;;4.50;75.60;;;4.01;61.21;93982.25;5071829;28;20200;-83
2021/04/06 10:08:41;;;;;;;4.45;3.20;;;4.60;75.30;;;4.00;61.79;93975.47;5055470;28;20200;-84
2021/04/06 10:11:09;;;;;;;6.07;3.15;;;4.60;75.30;;;4.01;61.63;93977.06;5055892;28;20731;-83
2021/04/06 10:13:38;;;;;;;3.47;3.13;;;4.60;75.10;;;4.06;62.23;93965.38;5055818;28;20191;-83
2021/04/06 10:16:17;;;;;;;3.20;2.90;;;4.70;75.30;;;4.12;61.14;93949.88;5039470;28;20188;-83
2021/04/06 10:18:48;;;;;;;5.22;3.10;;;4.70;75.00;;;4.21;61.14;93955.84;5038529;28;20666;-83
2021/04/06 10:21:25;;;;;;;3.25;2.95;;;4.80;75.20;;;4.19;61.73;93975.13;5055018;28;20290;-83
2021/04/06 10:24:06;;;;;;;3.47;2.70;;;4.80;75.40;;;4.06;60.79;93971.34;5055069;28;20657;-83
2021/04/06 10:26:33;;;;;;;3.75;3.00;;;4.80;74.70;;;3.86;61.52;93981.41;5055024;28;20218;-82
2021/04/06 10:29:09;;;;;;;4.32;3.20;;;4.80;74.40;;;3.65;61.65;93988.03;5039198;28;20219;-82
2021/04/06 10:31:47;;;;;;;4.20;3.15;;;4.70;74.50;;;3.51;61.68;93975.81;5018579;28;20737;-82
2021/04/06 10:34:15;;;;;;;3.33;2.90;;;4.60;74.50;;;3.46;62.08;93976.31;5047663;28;20261;-81
2021/04/06 10:37:06;;;;;;;4.28;3.20;;;4.50;74.80;;;3.46;62.17;93965.94;5050266;28;20315;-82
2021/04/06 10:39:37;;;;;;;3.45;2.88;;;4.50;75.00;;;3.43;62.23;93965.47;5018015;28;20204;-82
2021/04/06 10:42:08;;;;;;;5.10;3.80;;;4.40;75.20;;;3.38;62.95;93976.34;5039977;28;20224;-82
2021/04/06 10:44:34;;;;;;;3.80;3.47;;;4.40;75.90;;;3.30;63.68;93960.88;5042517;28;20204;-81
2021/04/06 10:47:02;;;;;;;5.38;3.50;;;4.30;75.40;;;3.20;64.07;93977.41;5045329;28;20213;-81
2021/04/06 10:49:29;;;;;;;5.07;3.40;;;4.30;75.60;;;3.22;63.18;93973.84;5034409;28;20305;-81
2021/04/06 10:51:59;;;;;;;5.75;3.40;;;4.20;75.50;;;3.26;62.95;93954.38;5035758;28;20239;-82
2021/04/06 10:54:26;;;;;;;6.53;3.42;;;4.20;75.50;;;3.25;63.53;93965.72;5052642;28;20196;-82